sensor_id;sensor_type;location;lat;lon;timestamp;P1;durP1;ratioP1;P2;durP2;ratioP2
39404;SDS011;25121;51.090;17.038;2023-05-10T05:46:02;15.10;;;7.07;;
39404;SDS011;25121;51.090;17.038;2023-05-10T05:47:25;16.45;;;8.15;;
39404;SDS011;25121;51.090;17.038;2023-05-10T05:48:53;16.35;;;7.60;;
39404;SDS011;25121;51.090;17.038;2023-05-10T05:50:56;15.00;;;7.32;;
39404;SDS011;25121;51.090;17.038;2023-05-10T05:53:23;14.27;;;8.02;;
39404;SDS011;25121;51.090;17.038;2023-05-10T05:55:36;13.50;;;7.60;;
39404;SDS011;25121;51.090;17.038;2023-05-10T05:58:03;13.52;;;7.10;;
39404;SDS011;25121;51.090;17.038;2023-05-10T06:00:00;18.73;;;8.48;;
39404;SDS011;25121;51.090;17.038;2023-05-10T06:01:44;14.82;;;7.60;;
39404;SDS011;25121;51.090;17.038;2023-05-10T06:03:24;14.98;;;7.93;;
39404;SDS011;25121;51.090;17.038;2023-05-10T06:04:50;13.02;;;6.88;;
39404;SDS011;25121;51.090;17.038;2023-05-10T06:06:26;22.50;;;8.20;;
39404;SDS011;25121;51.090;17.038;2023-05-10T06:07:56;15.38;;;7.45;;
39404;SDS011;25121;51.090;17.038;2023-05-10T06:09:38;14.85;;;6.93;;
39404;SDS011;25121;51.090;17.038;2023-05-10T06:11:03;14.85;;;7.15;;
39404;SDS011;25121;51.090;17.038;2023-05-10T06:12:30;11.93;;;7.25;;
39404;SDS011;25121;51.090;17.038;2023-05-10T06:13:53;14.50;;;7.45;;
39404;SDS011;25121;51.090;17.038;2023-05-10T06:15:18;10.15;;;6.93;;
39404;SDS011;25121;51.090;17.038;2023-05-10T06:16:42;11.82;;;7.55;;
39404;SDS011;25121;51.090;17.038;2023-05-10T06:18:04;13.55;;;7.88;;
39404;SDS011;25121;51.090;17.038;2023-05-10T06:19:27;18.17;;;7.68;;
39404;SDS011;25121;51.090;17.038;2023-05-10T06:20:51;12.27;;;8.10;;
39404;SDS011;25121;51.090;17.038;2023-05-10T06:22:15;11.05;;;7.35;;
39404;SDS011;25121;51.090;17.038;2023-05-10T06:23:38;12.80;;;8.02;;
39404;SDS011;25121;51.090;17.038;2023-05-10T06:25:03;9.10;;;7.03;;
39404;SDS011;25121;51.090;17.038;2023-05-10T06:26:46;14.55;;;7.53;;
39404;SDS011;25121;51.090;17.038;2023-05-10T06:28:10;12.88;;;7.40;;
39404;SDS011;25121;51.090;17.038;2023-05-10T06:31:56;12.87;;;7.30;;
39404;SDS011;25121;51.090;17.038;2023-05-10T06:33:19;32.35;;;10.93;;
39404;SDS011;25121;51.090;17.038;2023-05-10T06:34:41;14.63;;;7.53;;
39404;SDS011;25121;51.090;17.038;2023-05-10T06:36:05;13.02;;;6.88;;
39404;SDS011;25121;51.090;17.038;2023-05-10T06:37:27;10.77;;;7.07;;
39404;SDS011;25121;51.090;17.038;2023-05-10T06:38:49;12.60;;;6.43;;
39404;SDS011;25121;51.090;17.038;2023-05-10T06:40:12;10.55;;;6.55;;
39404;SDS011;25121;51.090;17.038;2023-05-10T06:41:38;11.10;;;7.05;;
39404;SDS011;25121;51.090;17.038;2023-05-10T06:43:01;10.25;;;6.40;;
39404;SDS011;25121;51.090;17.038;2023-05-10T06:44:28;10.75;;;6.78;;
39404;SDS011;25121;51.090;17.038;2023-05-10T06:45:51;9.90;;;6.53;;
39404;SDS011;25121;51.090;17.038;2023-05-10T06:47:20;25.02;;;6.90;;
39404;SDS011;25121;51.090;17.038;2023-05-10T06:48:47;19.65;;;6.78;;
39404;SDS011;25121;51.090;17.038;2023-05-10T06:50:18;16.70;;;6.22;;
39404;SDS011;25121;51.090;17.038;2023-05-10T06:51:40;11.00;;;6.40;;
39404;SDS011;25121;51.090;17.038;2023-05-10T06:53:15;11.23;;;6.13;;
39404;SDS011;25121;51.090;17.038;2023-05-10T06:54:54;7.68;;;5.70;;
39404;SDS011;25121;51.090;17.038;2023-05-10T06:56:28;8.70;;;5.90;;
39404;SDS011;25121;51.090;17.038;2023-05-10T06:57:59;10.10;;;5.80;;
39404;SDS011;25121;51.090;17.038;2023-05-10T07:06:56;8.32;;;5.43;;
39404;SDS011;25121;51.090;17.038;2023-05-10T07:08:28;11.20;;;5.60;;
39404;SDS011;25121;51.090;17.038;2023-05-10T07:10:04;9.80;;;5.57;;
39404;SDS011;25121;51.090;17.038;2023-05-10T07:12:05;12.52;;;5.40;;
39404;SDS011;25121;51.090;17.038;2023-05-10T07:17:40;7.38;;;5.03;;
39404;SDS011;25121;51.090;17.038;2023-05-10T07:19:07;11.77;;;5.40;;
39404;SDS011;25121;51.090;17.038;2023-05-10T07:20:30;9.23;;;4.93;;
39404;SDS011;25121;51.090;17.038;2023-05-10T07:22:07;11.35;;;4.80;;
39404;SDS011;25121;51.090;17.038;2023-05-10T07:23:31;11.68;;;5.18;;
39404;SDS011;25121;51.090;17.038;2023-05-10T07:24:54;11.43;;;5.18;;
39404;SDS011;25121;51.090;17.038;2023-05-10T07:27:30;13.45;;;6.22;;
39404;SDS011;25121;51.090;17.038;2023-05-10T07:29:29;9.80;;;5.90;;
39404;SDS011;25121;51.090;17.038;2023-05-10T07:34:41;12.90;;;4.95;;
39404;SDS011;25121;51.090;17.038;2023-05-10T07:36:36;14.07;;;5.85;;
39404;SDS011;25121;51.090;17.038;2023-05-10T07:38:30;7.57;;;4.82;;
39404;SDS011;25121;51.090;17.038;2023-05-10T07:40:04;8.48;;;5.15;;
39404;SDS011;25121;51.090;17.038;2023-05-10T07:44:36;7.75;;;4.35;;
39404;SDS011;25121;51.090;17.038;2023-05-10T07:46:40;7.30;;;4.43;;
39404;SDS011;25121;51.090;17.038;2023-05-10T08:16:22;6.75;;;4.35;;
39404;SDS011;25121;51.090;17.038;2023-05-10T08:20:04;6.88;;;3.95;;
39404;SDS011;25121;51.090;17.038;2023-05-10T08:23:43;8.10;;;3.70;;
39404;SDS011;25121;51.090;17.038;2023-05-10T08:27:28;7.65;;;3.55;;
39404;SDS011;25121;51.090;17.038;2023-05-10T08:29:17;3.58;;;3.28;;
39404;SDS011;25121;51.090;17.038;2023-05-10T08:30:43;9.43;;;3.40;;
39404;SDS011;25121;51.090;17.038;2023-05-10T08:32:13;9.02;;;3.60;;
39404;SDS011;25121;51.090;17.038;2023-05-10T08:33:35;5.47;;;3.25;;
39404;SDS011;25121;51.090;17.038;2023-05-10T08:37:31;5.75;;;3.20;;
39404;SDS011;25121;51.090;17.038;2023-05-10T08:39:00;4.40;;;3.33;;
39404;SDS011;25121;51.090;17.038;2023-05-10T08:40:23;3.05;;;2.75;;
39404;SDS011;25121;51.090;17.038;2023-05-10T08:42:06;5.38;;;3.28;;
39404;SDS011;25121;51.090;17.038;2023-05-10T08:43:32;3.38;;;3.08;;
39404;SDS011;25121;51.090;17.038;2023-05-10T08:45:11;8.65;;;2.80;;
39404;SDS011;25121;51.090;17.038;2023-05-10T08:46:46;6.15;;;2.97;;
39404;SDS011;25121;51.090;17.038;2023-05-10T08:48:34;3.95;;;3.10;;
39404;SDS011;25121;51.090;17.038;2023-05-10T08:50:17;7.10;;;3.22;;
39404;SDS011;25121;51.090;17.038;2023-05-10T08:52:02;5.18;;;2.75;;
39404;SDS011;25121;51.090;17.038;2023-05-10T08:53:30;6.07;;;3.22;;
39404;SDS011;25121;51.090;17.038;2023-05-10T08:54:58;4.30;;;2.60;;
39404;SDS011;25121;51.090;17.038;2023-05-10T08:57:19;4.35;;;2.63;;
39404;SDS011;25121;51.090;17.038;2023-05-10T09:04:11;5.25;;;2.75;;
39404;SDS011;25121;51.090;17.038;2023-05-10T10:16:32;4.60;;;2.78;;
39404;SDS011;25121;51.090;17.038;2023-05-10T10:19:30;16.40;;;4.38;;
39404;SDS011;25121;51.090;17.038;2023-05-10T10:21:33;5.95;;;2.67;;
39404;SDS011;25121;51.090;17.038;2023-05-10T10:23:14;5.83;;;2.37;;
39404;SDS011;25121;51.090;17.038;2023-05-10T10:24:58;5.72;;;2.92;;
39404;SDS011;25121;51.090;17.038;2023-05-10T10:31:40;3.38;;;2.95;;
39404;SDS011;25121;51.090;17.038;2023-05-10T10:35:46;4.15;;;2.50;;
39404;SDS011;25121;51.090;17.038;2023-05-10T10:37:20;3.58;;;2.53;;
39404;SDS011;25121;51.090;17.038;2023-05-10T10:39:20;5.07;;;2.75;;
39404;SDS011;25121;51.090;17.038;2023-05-10T10:41:26;3.25;;;2.03;;
39404;SDS011;25121;51.090;17.038;2023-05-10T10:42:51;5.35;;;2.67;;
39404;SDS011;25121;51.090;17.038;2023-05-10T10:46:22;3.28;;;2.63;;
39404;SDS011;25121;51.090;17.038;2023-05-10T10:48:29;7.25;;;2.92;;
39404;SDS011;25121;51.090;17.038;2023-05-10T10:50:20;5.25;;;3.22;;
39404;SDS011;25121;51.090;17.038;2023-05-10T10:54:08;5.47;;;3.33;;
39404;SDS011;25121;51.090;17.038;2023-05-10T10:55:55;8.43;;;3.45;;
39404;SDS011;25121;51.090;17.038;2023-05-10T10:57:43;5.45;;;3.00;;
39404;SDS011;25121;51.090;17.038;2023-05-10T10:59:13;7.93;;;3.33;;
39404;SDS011;25121;51.090;17.038;2023-05-10T11:00:55;5.30;;;2.80;;
39404;SDS011;25121;51.090;17.038;2023-05-10T11:02:42;9.02;;;3.15;;
39404;SDS011;25121;51.090;17.038;2023-05-10T11:04:21;4.93;;;3.47;;
39404;SDS011;25121;51.090;17.038;2023-05-10T11:05:46;5.22;;;3.60;;
39404;SDS011;25121;51.090;17.038;2023-05-10T11:07:16;4.95;;;3.45;;
39404;SDS011;25121;51.090;17.038;2023-05-10T11:08:41;10.90;;;3.47;;
39404;SDS011;25121;51.090;17.038;2023-05-10T11:10:05;6.65;;;3.20;;
39404;SDS011;25121;51.090;17.038;2023-05-10T11:11:48;5.80;;;3.55;;
39404;SDS011;25121;51.090;17.038;2023-05-10T11:13:17;6.05;;;4.13;;
39404;SDS011;25121;51.090;17.038;2023-05-10T11:14:52;3.35;;;3.05;;
39404;SDS011;25121;51.090;17.038;2023-05-10T11:16:20;5.68;;;3.00;;
39404;SDS011;25121;51.090;17.038;2023-05-10T11:17:44;7.32;;;3.40;;
39404;SDS011;25121;51.090;17.038;2023-05-10T11:19:14;4.50;;;2.92;;
39404;SDS011;25121;51.090;17.038;2023-05-10T11:20:39;5.28;;;2.92;;
39404;SDS011;25121;51.090;17.038;2023-05-10T11:22:12;4.43;;;2.70;;
39404;SDS011;25121;51.090;17.038;2023-05-10T11:23:47;8.68;;;2.90;;
39404;SDS011;25121;51.090;17.038;2023-05-10T11:25:13;4.00;;;2.85;;
39404;SDS011;25121;51.090;17.038;2023-05-10T11:26:38;5.07;;;2.83;;
39404;SDS011;25121;51.090;17.038;2023-05-10T11:28:04;6.38;;;2.85;;
39404;SDS011;25121;51.090;17.038;2023-05-10T11:29:36;5.47;;;2.80;;
39404;SDS011;25121;51.090;17.038;2023-05-10T11:31:09;5.03;;;3.05;;
39404;SDS011;25121;51.090;17.038;2023-05-10T11:32:33;12.25;;;3.35;;
39404;SDS011;25121;51.090;17.038;2023-05-10T11:33:58;8.63;;;3.17;;
39404;SDS011;25121;51.090;17.038;2023-05-10T11:35:28;5.57;;;2.95;;
39404;SDS011;25121;51.090;17.038;2023-05-10T11:36:52;4.38;;;2.78;;
39404;SDS011;25121;51.090;17.038;2023-05-10T11:38:15;6.50;;;2.70;;
39404;SDS011;25121;51.090;17.038;2023-05-10T11:39:37;7.03;;;3.47;;
39404;SDS011;25121;51.090;17.038;2023-05-10T11:41:02;5.32;;;2.90;;
39404;SDS011;25121;51.090;17.038;2023-05-10T11:42:24;5.15;;;3.00;;
39404;SDS011;25121;51.090;17.038;2023-05-10T11:43:49;4.03;;;2.53;;
39404;SDS011;25121;51.090;17.038;2023-05-10T11:45:14;6.40;;;3.70;;
39404;SDS011;25121;51.090;17.038;2023-05-10T11:46:53;6.63;;;3.15;;
39404;SDS011;25121;51.090;17.038;2023-05-10T11:50:00;10.38;;;2.90;;
39404;SDS011;25121;51.090;17.038;2023-05-10T13:41:12;3.95;;;2.53;;
39404;SDS011;25121;51.090;17.038;2023-05-10T14:05:32;3.85;;;2.15;;
39404;SDS011;25121;51.090;17.038;2023-05-10T17:59:27;6.50;;;3.13;;
39404;SDS011;25121;51.090;17.038;2023-05-10T18:43:50;11.13;;;4.70;;
39404;SDS011;25121;51.090;17.038;2023-05-10T18:53:21;8.48;;;5.00;;
39404;SDS011;25121;51.090;17.038;2023-05-10T18:58:43;13.98;;;4.45;;
39404;SDS011;25121;51.090;17.038;2023-05-10T19:01:27;6.22;;;4.35;;
39404;SDS011;25121;51.090;17.038;2023-05-10T19:02:57;6.57;;;4.82;;
39404;SDS011;25121;51.090;17.038;2023-05-10T19:07:24;10.18;;;4.88;;
39404;SDS011;25121;51.090;17.038;2023-05-10T19:10:18;9.57;;;5.18;;
39404;SDS011;25121;51.090;17.038;2023-05-10T19:16:01;7.68;;;5.72;;
39404;SDS011;25121;51.090;17.038;2023-05-10T19:17:58;6.40;;;5.18;;
39404;SDS011;25121;51.090;17.038;2023-05-10T19:20:13;9.95;;;5.32;;
39404;SDS011;25121;51.090;17.038;2023-05-10T19:33:35;14.80;;;6.20;;
39404;SDS011;25121;51.090;17.038;2023-05-10T19:41:04;9.98;;;6.00;;
39404;SDS011;25121;51.090;17.038;2023-05-10T19:42:39;12.32;;;6.07;;
39404;SDS011;25121;51.090;17.038;2023-05-10T19:44:04;11.77;;;6.10;;
39404;SDS011;25121;51.090;17.038;2023-05-10T19:45:35;10.07;;;6.10;;
39404;SDS011;25121;51.090;17.038;2023-05-10T19:47:01;11.65;;;6.82;;
39404;SDS011;25121;51.090;17.038;2023-05-10T19:48:35;9.50;;;5.82;;
39404;SDS011;25121;51.090;17.038;2023-05-10T19:50:03;11.90;;;6.80;;
39404;SDS011;25121;51.090;17.038;2023-05-10T19:51:30;12.63;;;6.57;;
39404;SDS011;25121;51.090;17.038;2023-05-10T19:52:54;11.27;;;6.57;;
39404;SDS011;25121;51.090;17.038;2023-05-10T19:54:44;9.68;;;6.45;;
39404;SDS011;25121;51.090;17.038;2023-05-10T19:57:35;12.90;;;6.85;;
39404;SDS011;25121;51.090;17.038;2023-05-10T20:00:36;12.85;;;7.07;;
39404;SDS011;25121;51.090;17.038;2023-05-10T20:04:06;7.88;;;6.10;;
39404;SDS011;25121;51.090;17.038;2023-05-10T20:05:35;10.52;;;6.72;;
39404;SDS011;25121;51.090;17.038;2023-05-10T20:07:03;12.13;;;6.85;;
39404;SDS011;25121;51.090;17.038;2023-05-10T20:08:26;13.60;;;6.93;;
39404;SDS011;25121;51.090;17.038;2023-05-10T20:09:50;12.60;;;7.03;;
39404;SDS011;25121;51.090;17.038;2023-05-10T20:11:12;12.27;;;6.32;;
39404;SDS011;25121;51.090;17.038;2023-05-10T20:12:38;13.82;;;7.57;;
39404;SDS011;25121;51.090;17.038;2023-05-10T20:16:48;14.45;;;6.95;;
39404;SDS011;25121;51.090;17.038;2023-05-10T20:19:08;9.70;;;6.38;;
39404;SDS011;25121;51.090;17.038;2023-05-10T20:20:33;10.93;;;6.18;;
39404;SDS011;25121;51.090;17.038;2023-05-10T20:21:56;8.98;;;6.28;;
39404;SDS011;25121;51.090;17.038;2023-05-10T20:23:19;11.27;;;6.25;;
39404;SDS011;25121;51.090;17.038;2023-05-10T20:27:10;14.85;;;6.63;;
39404;SDS011;25121;51.090;17.038;2023-05-10T20:28:47;8.30;;;6.38;;
39404;SDS011;25121;51.090;17.038;2023-05-10T20:30:55;11.35;;;6.68;;
39404;SDS011;25121;51.090;17.038;2023-05-10T20:33:21;12.57;;;6.35;;
39404;SDS011;25121;51.090;17.038;2023-05-10T20:58:06;9.98;;;5.80;;
39404;SDS011;25121;51.090;17.038;2023-05-10T22:02:28;8.13;;;6.03;;
39404;SDS011;25121;51.090;17.038;2023-05-10T22:03:54;9.82;;;5.53;;
39404;SDS011;25121;51.090;17.038;2023-05-10T22:05:16;11.77;;;6.43;;
39404;SDS011;25121;51.090;17.038;2023-05-10T22:06:39;9.82;;;6.10;;
39404;SDS011;25121;51.090;17.038;2023-05-10T22:08:00;8.43;;;6.07;;
39404;SDS011;25121;51.090;17.038;2023-05-10T22:09:24;12.48;;;5.97;;
39404;SDS011;25121;51.090;17.038;2023-05-10T22:10:46;11.40;;;6.05;;
39404;SDS011;25121;51.090;17.038;2023-05-10T22:12:13;13.18;;;6.50;;
39404;SDS011;25121;51.090;17.038;2023-05-10T22:13:36;8.98;;;5.20;;
39404;SDS011;25121;51.090;17.038;2023-05-10T22:14:57;7.57;;;5.50;;
39404;SDS011;25121;51.090;17.038;2023-05-10T22:17:55;15.70;;;7.43;;
39404;SDS011;25121;51.090;17.038;2023-05-10T22:19:20;17.85;;;5.90;;
39404;SDS011;25121;51.090;17.038;2023-05-10T22:20:43;9.82;;;5.85;;
39404;SDS011;25121;51.090;17.038;2023-05-10T22:22:11;9.05;;;6.38;;
39404;SDS011;25121;51.090;17.038;2023-05-10T22:23:32;11.10;;;5.63;;
39404;SDS011;25121;51.090;17.038;2023-05-10T22:24:55;8.43;;;5.75;;
39404;SDS011;25121;51.090;17.038;2023-05-10T22:26:26;7.90;;;5.68;;
39404;SDS011;25121;51.090;17.038;2023-05-10T22:27:48;11.20;;;5.80;;
39404;SDS011;25121;51.090;17.038;2023-05-10T22:29:10;10.25;;;5.88;;
39404;SDS011;25121;51.090;17.038;2023-05-10T22:30:33;9.48;;;5.43;;
39404;SDS011;25121;51.090;17.038;2023-05-10T22:31:54;10.30;;;5.07;;
39404;SDS011;25121;51.090;17.038;2023-05-10T22:33:25;11.90;;;5.53;;
39404;SDS011;25121;51.090;17.038;2023-05-10T22:34:50;11.93;;;6.07;;
39404;SDS011;25121;51.090;17.038;2023-05-10T22:36:12;9.77;;;5.63;;
39404;SDS011;25121;51.090;17.038;2023-05-10T22:37:36;9.25;;;5.10;;
39404;SDS011;25121;51.090;17.038;2023-05-10T22:38:59;8.77;;;5.63;;
39404;SDS011;25121;51.090;17.038;2023-05-10T22:40:30;8.13;;;5.40;;
39404;SDS011;25121;51.090;17.038;2023-05-10T22:42:00;10.45;;;6.07;;
39404;SDS011;25121;51.090;17.038;2023-05-10T22:43:22;7.05;;;4.75;;
39404;SDS011;25121;51.090;17.038;2023-05-10T22:44:44;10.40;;;5.35;;
39404;SDS011;25121;51.090;17.038;2023-05-10T22:49:10;10.45;;;5.20;;
39404;SDS011;25121;51.090;17.038;2023-05-10T22:52:43;8.98;;;5.68;;
39404;SDS011;25121;51.090;17.038;2023-05-10T22:54:06;13.45;;;6.25;;
39404;SDS011;25121;51.090;17.038;2023-05-10T22:55:28;7.88;;;5.40;;
39404;SDS011;25121;51.090;17.038;2023-05-10T22:56:51;11.45;;;5.50;;
39404;SDS011;25121;51.090;17.038;2023-05-10T22:58:12;10.85;;;5.88;;
39404;SDS011;25121;51.090;17.038;2023-05-10T22:59:35;8.25;;;5.18;;
39404;SDS011;25121;51.090;17.038;2023-05-10T23:00:56;9.82;;;4.95;;
39404;SDS011;25121;51.090;17.038;2023-05-10T23:02:19;14.77;;;6.10;;
39404;SDS011;25121;51.090;17.038;2023-05-10T23:03:41;9.20;;;5.47;;
39404;SDS011;25121;51.090;17.038;2023-05-10T23:05:06;12.70;;;5.35;;
39404;SDS011;25121;51.090;17.038;2023-05-10T23:06:29;11.93;;;5.28;;
39404;SDS011;25121;51.090;17.038;2023-05-10T23:07:50;11.35;;;5.78;;
39404;SDS011;25121;51.090;17.038;2023-05-10T23:09:14;10.40;;;5.75;;
39404;SDS011;25121;51.090;17.038;2023-05-10T23:10:35;11.65;;;5.60;;
39404;SDS011;25121;51.090;17.038;2023-05-10T23:11:58;10.90;;;5.68;;
39404;SDS011;25121;51.090;17.038;2023-05-10T23:13:20;9.18;;;5.70;;
39404;SDS011;25121;51.090;17.038;2023-05-10T23:14:42;10.98;;;5.20;;
39404;SDS011;25121;51.090;17.038;2023-05-10T23:16:06;13.02;;;7.03;;
39404;SDS011;25121;51.090;17.038;2023-05-10T23:17:31;11.35;;;5.70;;
39404;SDS011;25121;51.090;17.038;2023-05-10T23:18:53;11.30;;;5.50;;
39404;SDS011;25121;51.090;17.038;2023-05-10T23:20:17;12.45;;;5.63;;
39404;SDS011;25121;51.090;17.038;2023-05-10T23:21:38;9.27;;;5.10;;
39404;SDS011;25121;51.090;17.038;2023-05-10T23:23:01;10.70;;;5.53;;
39404;SDS011;25121;51.090;17.038;2023-05-10T23:24:23;10.18;;;5.50;;
39404;SDS011;25121;51.090;17.038;2023-05-10T23:25:45;12.35;;;5.95;;
39404;SDS011;25121;51.090;17.038;2023-05-10T23:27:08;9.25;;;5.90;;
39404;SDS011;25121;51.090;17.038;2023-05-10T23:28:30;8.80;;;5.45;;
39404;SDS011;25121;51.090;17.038;2023-05-10T23:29:54;10.48;;;5.88;;
39404;SDS011;25121;51.090;17.038;2023-05-10T23:31:21;10.63;;;5.93;;
39404;SDS011;25121;51.090;17.038;2023-05-10T23:33:29;8.40;;;5.20;;
39404;SDS011;25121;51.090;17.038;2023-05-10T23:34:51;12.07;;;5.53;;
39404;SDS011;25121;51.090;17.038;2023-05-10T23:36:15;8.70;;;5.13;;
39404;SDS011;25121;51.090;17.038;2023-05-10T23:37:40;13.63;;;5.60;;
39404;SDS011;25121;51.090;17.038;2023-05-10T23:39:04;8.43;;;5.45;;
39404;SDS011;25121;51.090;17.038;2023-05-10T23:40:30;10.32;;;5.68;;
39404;SDS011;25121;51.090;17.038;2023-05-10T23:41:51;8.80;;;5.50;;
39404;SDS011;25121;51.090;17.038;2023-05-10T23:43:19;12.73;;;5.78;;
39404;SDS011;25121;51.090;17.038;2023-05-10T23:44:41;7.80;;;5.72;;
39404;SDS011;25121;51.090;17.038;2023-05-10T23:46:12;8.43;;;5.38;;
39404;SDS011;25121;51.090;17.038;2023-05-10T23:47:38;10.70;;;6.45;;
39404;SDS011;25121;51.090;17.038;2023-05-10T23:49:01;9.52;;;5.72;;
39404;SDS011;25121;51.090;17.038;2023-05-10T23:50:25;8.68;;;5.88;;
39404;SDS011;25121;51.090;17.038;2023-05-10T23:51:48;10.27;;;5.63;;
39404;SDS011;25121;51.090;17.038;2023-05-10T23:53:10;8.13;;;5.65;;
39404;SDS011;25121;51.090;17.038;2023-05-10T23:54:33;8.57;;;5.75;;
39404;SDS011;25121;51.090;17.038;2023-05-10T23:55:56;8.85;;;5.78;;
39404;SDS011;25121;51.090;17.038;2023-05-10T23:57:17;10.80;;;6.38;;
39404;SDS011;25121;51.090;17.038;2023-05-10T23:58:40;11.07;;;6.25;;
